createdAt,value
2022-09-04T00:00:48.141Z,14.50
2022-09-04T00:03:29.641Z,14.50
2022-09-04T00:05:58.114Z,14.50
2022-09-04T00:08:36.463Z,14.40
2022-09-04T00:11:07.290Z,14.40
2022-09-04T00:13:40.114Z,14.40
2022-09-04T00:16:06.772Z,14.30
2022-09-04T00:18:33.759Z,14.30
2022-09-04T00:21:03.428Z,14.20
2022-09-04T00:23:41.318Z,14.20
2022-09-04T00:26:14.477Z,14.20
2022-09-04T00:28:46.774Z,14.10
2022-09-04T00:31:29.174Z,14.30
2022-09-04T00:34:07.383Z,14.20
2022-09-04T00:36:36.414Z,14.10
2022-09-04T00:39:09.645Z,14.10
2022-09-04T00:41:49.961Z,14.10
2022-09-04T00:44:32.178Z,14.20
2022-09-04T00:47:17.765Z,14.10
2022-09-04T00:50:12.073Z,14.10
2022-09-04T00:52:41.814Z,14.00
2022-09-04T00:55:20.362Z,14.00
2022-09-04T00:57:59.014Z,14.10
2022-09-04T01:00:27.899Z,14.10
2022-09-04T01:03:12.890Z,14.10
2022-09-04T01:05:57.923Z,14.20
2022-09-04T01:08:43.795Z,14.20
2022-09-04T01:11:29.295Z,14.10
2022-09-04T01:13:55.919Z,14.10
2022-09-04T01:16:29.208Z,14.20
2022-09-04T01:19:05.945Z,14.20
2022-09-04T01:21:45.446Z,14.30
2022-09-04T01:24:18.330Z,14.30
2022-09-04T01:26:48.920Z,14.40
2022-09-04T01:29:22.545Z,14.40
2022-09-04T01:31:54.256Z,14.50
2022-09-04T01:34:39.088Z,14.50
2022-09-04T01:37:20.140Z,14.60
2022-09-04T01:40:00.743Z,14.60
2022-09-04T01:42:33.093Z,14.70
2022-09-04T01:44:59.968Z,14.70
2022-09-04T01:47:31.018Z,14.60
2022-09-04T01:50:01.781Z,14.50
2022-09-04T01:52:36.755Z,14.50
2022-09-04T01:55:24.199Z,14.50
2022-09-04T01:58:09.568Z,14.50
2022-09-04T02:00:41.783Z,14.50
2022-09-04T02:03:11.643Z,14.50
2022-09-04T02:05:45.666Z,14.50
2022-09-04T02:08:15.400Z,14.50
2022-09-04T02:10:54.292Z,14.50
2022-09-04T02:13:29.477Z,14.50
2022-09-04T02:16:03.132Z,14.60
2022-09-04T02:18:53.339Z,14.70
2022-09-04T02:21:31.597Z,14.60
2022-09-04T02:24:16.106Z,14.70
2022-09-04T02:26:47.175Z,14.60
2022-09-04T02:29:16.917Z,14.50
2022-09-04T02:31:49.460Z,14.60
2022-09-04T02:34:23.865Z,14.60
2022-09-04T02:36:59.127Z,14.60
2022-09-04T02:39:38.155Z,14.60
2022-09-04T02:42:12.704Z,14.60
2022-09-04T02:44:45.216Z,14.60
2022-09-04T02:47:14.865Z,14.60
2022-09-04T02:49:48.558Z,14.60
2022-09-04T02:52:38.069Z,14.60
2022-09-04T02:55:21.537Z,14.60
2022-09-04T02:58:07.836Z,14.60
2022-09-04T03:00:43.453Z,14.60
2022-09-04T03:03:18.718Z,14.60
2022-09-04T03:05:56.637Z,14.60
2022-09-04T03:08:27.364Z,14.70
2022-09-04T03:11:05.162Z,14.70
2022-09-04T03:13:38.884Z,14.70
2022-09-04T03:16:12.576Z,14.70
2022-09-04T03:19:02.950Z,14.70
2022-09-04T03:21:34.825Z,14.70
2022-09-04T03:24:07.527Z,14.80
2022-09-04T03:26:35.440Z,14.70
2022-09-04T03:29:02.133Z,14.70
2022-09-04T03:31:49.816Z,14.70
2022-09-04T03:34:22.505Z,14.70
2022-09-04T03:37:04.303Z,14.70
2022-09-04T03:39:36.662Z,14.70
2022-09-04T03:42:22.378Z,14.80
2022-09-04T03:45:07.564Z,14.80
2022-09-04T03:47:41.358Z,14.80
2022-09-04T03:50:23.348Z,14.70
2022-09-04T03:52:56.142Z,14.70
2022-09-04T03:55:30.000Z,14.70
2022-09-04T03:58:05.602Z,14.70
2022-09-04T04:00:41.414Z,14.60
2022-09-04T04:03:08.110Z,14.60
2022-09-04T04:05:39.789Z,14.60
2022-09-04T04:08:27.471Z,14.60
2022-09-04T04:11:08.374Z,14.60
2022-09-04T04:13:37.987Z,14.60
2022-09-04T04:16:04.689Z,14.50
2022-09-04T04:18:49.777Z,14.50
2022-09-04T04:21:16.421Z,14.50
2022-09-04T04:23:43.369Z,14.40
2022-09-04T04:26:42.475Z,14.40
2022-09-04T04:29:26.687Z,14.30
2022-09-04T04:32:13.421Z,14.30
2022-09-04T04:34:49.028Z,14.20
2022-09-04T04:37:34.538Z,14.20
2022-09-04T04:40:20.298Z,14.10
2022-09-04T04:42:54.562Z,14.00
2022-09-04T04:45:39.887Z,14.10
2022-09-04T04:48:25.407Z,14.00
2022-09-04T04:51:01.437Z,13.90
2022-09-04T04:53:42.996Z,13.90
2022-09-04T04:56:31.510Z,13.90
2022-09-04T04:59:20.647Z,13.90
2022-09-04T05:01:58.998Z,13.90
2022-09-04T05:04:31.934Z,13.90
2022-09-04T05:07:01.641Z,13.90
2022-09-04T05:09:28.619Z,13.90
2022-09-04T05:12:06.097Z,13.90
2022-09-04T05:14:39.496Z,13.90
2022-09-04T05:17:17.423Z,13.90
2022-09-04T05:19:56.455Z,13.90
2022-09-04T05:22:34.628Z,13.90
2022-09-04T05:25:10.412Z,13.90
2022-09-04T05:27:55.996Z,13.90
2022-09-04T05:30:58.404Z,13.90
2022-09-04T05:33:40.437Z,13.90
2022-09-04T05:36:19.834Z,13.90
2022-09-04T05:38:46.491Z,13.90
2022-09-04T05:41:25.379Z,13.90
2022-09-04T05:43:58.055Z,14.00
2022-09-04T05:46:24.754Z,14.00
2022-09-04T05:48:57.751Z,14.00
2022-09-04T05:51:39.797Z,14.00
2022-09-04T05:54:15.512Z,14.00
2022-09-04T05:57:00.866Z,14.10
2022-09-04T05:59:48.088Z,14.20
2022-09-04T06:02:29.931Z,14.20
2022-09-04T06:05:08.795Z,14.30
2022-09-04T06:07:54.215Z,14.40
2022-09-04T06:10:28.655Z,14.50
2022-09-04T06:13:09.216Z,14.60
2022-09-04T06:15:39.001Z,14.60
2022-09-04T06:18:11.758Z,14.70
2022-09-04T06:20:41.415Z,14.80
2022-09-04T06:23:11.130Z,14.90
2022-09-04T06:25:37.783Z,15.00
2022-09-04T06:28:24.809Z,15.10
2022-09-04T06:31:10.546Z,15.20
2022-09-04T06:33:56.284Z,15.30
2022-09-04T06:36:40.202Z,15.40
2022-09-04T06:39:30.957Z,15.40
2022-09-04T06:41:57.771Z,15.50
2022-09-04T06:44:43.369Z,15.60
2022-09-04T06:47:10.085Z,15.70
2022-09-04T06:49:39.940Z,15.80
2022-09-04T06:52:29.729Z,15.80
2022-09-04T06:55:02.865Z,15.80
2022-09-04T06:57:30.691Z,16.00
2022-09-04T06:59:57.323Z,16.00
2022-09-04T07:02:44.693Z,16.20
2022-09-04T07:05:11.563Z,16.10
2022-09-04T07:07:49.125Z,16.20
2022-09-04T07:10:42.236Z,16.20
2022-09-04T07:13:27.430Z,16.30
2022-09-04T07:16:18.689Z,16.40
2022-09-04T07:18:58.066Z,16.50
2022-09-04T07:21:49.791Z,16.50
2022-09-04T07:24:36.051Z,16.60
2022-09-04T07:27:11.218Z,16.70
2022-09-04T07:29:50.233Z,16.70
2022-09-04T07:32:20.642Z,16.80
2022-09-04T07:34:47.262Z,16.90
2022-09-04T07:37:28.027Z,17.00
2022-09-04T07:40:00.115Z,17.10
2022-09-04T07:42:31.179Z,17.20
2022-09-04T07:45:22.435Z,17.30
2022-09-04T07:47:55.334Z,17.40
2022-09-04T07:50:25.797Z,17.60
2022-09-04T07:53:04.170Z,17.60
2022-09-04T07:55:41.063Z,17.70
2022-09-04T07:58:31.704Z,17.70
2022-09-04T08:00:58.415Z,17.80
2022-09-04T08:03:31.758Z,17.90
2022-09-04T08:06:09.638Z,17.80
2022-09-04T08:08:55.255Z,17.90
2022-09-04T08:11:41.003Z,17.90
2022-09-04T08:14:10.786Z,17.90
2022-09-04T08:16:57.851Z,18.00
2022-09-04T08:19:40.341Z,18.00
2022-09-04T08:22:12.123Z,17.90
2022-09-04T08:24:57.621Z,17.90
2022-09-04T08:27:35.512Z,18.00
2022-09-04T08:30:13.369Z,17.90
2022-09-04T08:32:40.054Z,18.10
2022-09-04T08:35:12.335Z,18.20
2022-09-04T08:37:57.746Z,18.20
2022-09-04T08:40:39.462Z,18.20
2022-09-04T08:43:12.983Z,18.30
2022-09-04T08:45:43.403Z,18.30
2022-09-04T08:48:46.365Z,18.30
2022-09-04T08:51:39.788Z,18.40
2022-09-04T08:54:06.493Z,18.40
2022-09-04T08:56:42.441Z,18.40
2022-09-04T08:59:09.081Z,18.50
2022-09-04T09:01:36.072Z,18.60
2022-09-04T09:04:21.056Z,18.70
2022-09-04T09:06:59.817Z,18.80
2022-09-04T09:09:45.471Z,18.90
2022-09-04T09:12:41.455Z,18.90
2022-09-04T09:15:11.625Z,18.90
2022-09-04T09:17:39.089Z,18.80
2022-09-04T09:20:19.763Z,18.80
2022-09-04T09:23:07.939Z,19.00
2022-09-04T09:25:49.640Z,19.00
2022-09-04T09:28:16.437Z,19.10
2022-09-04T09:31:09.229Z,19.20
2022-09-04T09:33:36.057Z,19.10
2022-09-04T09:36:12.224Z,19.10
2022-09-04T09:38:48.778Z,19.20
2022-09-04T09:41:33.937Z,19.30
2022-09-04T09:44:06.882Z,19.30
2022-09-04T09:46:52.323Z,19.30
2022-09-04T09:49:31.368Z,19.40
2022-09-04T09:52:16.553Z,19.40
2022-09-04T09:55:03.027Z,19.40
2022-09-04T09:57:48.434Z,19.40
2022-09-04T10:00:19.960Z,19.40
2022-09-04T10:02:46.694Z,19.50
2022-09-04T10:05:13.409Z,19.40
2022-09-04T10:07:58.737Z,19.40
2022-09-04T10:10:37.413Z,19.40
2022-09-04T10:13:10.239Z,19.50
2022-09-04T10:16:01.506Z,19.50
2022-09-04T10:18:47.025Z,19.40
2022-09-04T10:21:42.643Z,19.50
2022-09-04T10:24:21.285Z,19.50
2022-09-04T10:26:54.249Z,19.60
2022-09-04T10:29:30.311Z,19.70
2022-09-04T10:31:57.024Z,19.70
2022-09-04T10:34:29.704Z,19.80
2022-09-04T10:40:14.523Z,20.00
2022-09-04T10:42:59.908Z,20.10
2022-09-04T10:45:48.170Z,20.10
2022-09-04T10:48:25.293Z,20.10
2022-09-04T10:51:08.352Z,20.20
2022-09-04T10:53:55.108Z,20.30
2022-09-04T10:56:37.038Z,20.30
2022-09-04T10:59:16.767Z,20.40
2022-09-04T11:01:43.566Z,20.50
2022-09-04T11:04:13.356Z,20.50
2022-09-04T11:06:52.872Z,20.70
2022-09-04T11:09:28.390Z,20.60
2022-09-04T11:11:58.895Z,20.60
2022-09-04T11:14:28.965Z,20.60
2022-09-04T11:17:04.952Z,20.60
2022-09-04T11:19:51.571Z,20.60
2022-09-04T11:22:38.853Z,20.60
2022-09-04T11:25:12.060Z,20.60
2022-09-04T11:27:52.011Z,20.80
2022-09-04T11:30:20.502Z,20.90
2022-09-04T11:32:53.375Z,20.90
2022-09-04T11:35:32.311Z,20.90
2022-09-04T11:37:59.716Z,20.90
2022-09-04T11:40:29.159Z,21.00
2022-09-04T11:43:01.881Z,21.00
2022-09-04T11:45:41.576Z,21.10
2022-09-04T11:48:14.489Z,21.10
2022-09-04T11:51:01.605Z,21.10
2022-09-04T11:53:47.417Z,21.20
2022-09-04T11:56:25.649Z,21.20
2022-09-04T11:59:13.832Z,21.20
2022-09-04T12:01:48.166Z,21.40
2022-09-04T12:04:33.754Z,21.60
2022-09-04T12:07:13.619Z,21.70
2022-09-04T12:09:59.125Z,21.90
2022-09-04T12:12:31.957Z,22.20
2022-09-04T12:15:16.382Z,22.40
2022-09-04T12:17:50.229Z,22.50
2022-09-04T12:20:25.133Z,22.60
2022-09-04T12:22:54.614Z,22.80
2022-09-04T12:25:39.994Z,22.90
2022-09-04T12:28:09.514Z,22.70
2022-09-04T12:30:51.429Z,22.50
2022-09-04T12:33:19.843Z,22.40
2022-09-04T12:36:00.810Z,22.50
2022-09-04T12:38:47.264Z,22.50
2022-09-04T12:41:25.610Z,22.40
2022-09-04T12:43:58.341Z,22.40
2022-09-04T12:46:35.347Z,22.40
2022-09-04T12:49:02.008Z,22.40
2022-09-04T12:51:40.262Z,22.30
2022-09-04T12:54:09.153Z,22.30
2022-09-04T12:56:48.175Z,22.10
2022-09-04T12:59:25.821Z,22.10
2022-09-04T13:02:05.190Z,22.00
2022-09-04T13:04:55.769Z,22.00
2022-09-04T13:07:28.667Z,22.00
2022-09-04T13:10:04.480Z,22.00
2022-09-04T13:12:34.133Z,22.00
2022-09-04T13:15:08.614Z,22.10
2022-09-04T13:17:45.538Z,22.10
2022-09-04T13:20:31.605Z,22.10
2022-09-04T13:23:05.421Z,22.20
2022-09-04T13:25:35.338Z,22.40
2022-09-04T13:28:20.636Z,22.50
2022-09-04T13:31:06.477Z,22.50
2022-09-04T13:33:40.100Z,22.60
2022-09-04T13:36:24.894Z,22.70
2022-09-04T13:39:13.226Z,22.80
2022-09-04T13:41:39.864Z,22.80
2022-09-04T13:44:25.040Z,22.70
2022-09-04T13:47:03.779Z,22.60
2022-09-04T13:49:56.458Z,22.70
2022-09-04T13:52:30.326Z,22.50
2022-09-04T13:55:23.234Z,22.40
2022-09-04T13:58:05.874Z,22.30
2022-09-04T14:00:35.146Z,22.30
2022-09-04T14:03:04.002Z,22.40
2022-09-04T14:05:33.333Z,22.40
2022-09-04T14:08:05.354Z,22.60
2022-09-04T14:10:38.082Z,22.60
2022-09-04T14:13:07.782Z,22.70
2022-09-04T14:15:34.545Z,22.70
2022-09-04T14:18:08.320Z,22.70
2022-09-04T14:20:42.396Z,22.70
2022-09-04T14:23:20.495Z,22.70
2022-09-04T14:25:56.455Z,22.70
2022-09-04T14:28:30.070Z,22.90
2022-09-04T14:31:10.757Z,23.00
2022-09-04T14:33:44.407Z,23.00
2022-09-04T14:36:23.826Z,23.00
2022-09-04T14:39:09.686Z,22.90
2022-09-04T14:41:42.351Z,22.80
2022-09-04T14:44:27.855Z,22.80
2022-09-04T14:47:00.751Z,22.70
2022-09-04T14:49:31.899Z,22.70
2022-09-04T14:52:09.757Z,22.60
2022-09-04T14:54:39.449Z,22.40
2022-09-04T14:57:23.503Z,22.30
2022-09-04T14:59:56.170Z,22.20
2022-09-04T15:02:33.420Z,22.10
2022-09-04T15:05:18.418Z,22.00
2022-09-04T15:07:49.617Z,21.90
2022-09-04T15:10:19.878Z,22.00
2022-09-04T15:13:09.926Z,21.90
2022-09-04T15:15:42.131Z,21.90
2022-09-04T15:18:15.924Z,22.00
2022-09-04T15:21:02.225Z,21.90
2022-09-04T15:23:41.487Z,21.90
2022-09-04T15:26:10.973Z,21.90
2022-09-04T15:28:38.510Z,21.80
2022-09-04T15:31:15.557Z,21.80
2022-09-04T15:33:44.271Z,21.80
2022-09-04T15:36:15.553Z,21.60
2022-09-04T15:38:47.511Z,21.60
2022-09-04T15:41:19.783Z,21.70
2022-09-04T15:43:47.925Z,21.70
2022-09-04T15:46:20.813Z,21.90
2022-09-04T15:48:56.857Z,21.90
2022-09-04T15:51:23.572Z,21.90
2022-09-04T15:53:54.023Z,21.90
2022-09-04T15:56:20.778Z,21.90
2022-09-04T15:59:05.910Z,21.90
2022-09-04T16:01:38.350Z,21.90
2022-09-04T16:04:17.435Z,21.90
2022-09-04T16:06:54.642Z,21.80
2022-09-04T16:09:21.452Z,21.80
2022-09-04T16:11:55.981Z,21.80
2022-09-04T16:14:28.061Z,21.80
2022-09-04T16:16:59.227Z,21.80
2022-09-04T16:19:29.076Z,21.80
2022-09-04T16:22:00.075Z,21.70
2022-09-04T16:24:32.625Z,21.70
2022-09-04T16:26:59.416Z,21.70
2022-09-04T16:29:37.455Z,21.60
2022-09-04T16:32:06.638Z,21.50
2022-09-04T16:34:37.323Z,21.40
2022-09-04T16:37:11.860Z,21.30
2022-09-04T16:39:45.142Z,21.30
2022-09-04T16:42:15.553Z,21.20
2022-09-04T16:45:02.691Z,21.10
2022-09-04T16:47:38.624Z,21.10
2022-09-04T16:50:13.188Z,21.00
2022-09-04T16:53:12.878Z,20.90
2022-09-04T16:55:44.729Z,20.80
2022-09-04T16:58:11.567Z,20.80
2022-09-04T17:00:59.961Z,20.70
2022-09-04T17:04:13.133Z,20.60
2022-09-04T17:06:44.863Z,20.50
2022-09-04T17:09:21.788Z,20.40
2022-09-04T17:11:55.804Z,20.40
2022-09-04T17:14:45.798Z,20.30
2022-09-04T17:17:31.130Z,20.20
2022-09-04T17:20:01.117Z,20.10
2022-09-04T17:29:03.412Z,20.00
2022-09-04T17:29:08.553Z,19.90
2022-09-04T17:29:09.381Z,19.80
2022-09-04T17:31:29.837Z,19.70
2022-09-04T17:40:35.395Z,19.50
2022-09-04T17:40:42.385Z,19.60
2022-09-04T17:40:56.843Z,19.30
2022-09-04T17:42:33.735Z,19.20
2022-09-04T17:45:06.260Z,19.10
2022-09-04T17:47:33.117Z,19.10
2022-09-04T17:50:00.800Z,19.00
2022-09-04T17:52:36.695Z,18.90
2022-09-04T17:55:08.166Z,18.80
2022-09-04T17:57:46.998Z,18.70
2022-09-04T18:00:20.662Z,18.60
2022-09-04T18:03:06.699Z,18.50
2022-09-04T18:05:53.298Z,18.40
2022-09-04T18:08:30.220Z,18.30
2022-09-04T18:10:58.690Z,18.20
2022-09-04T18:13:44.170Z,18.20
2022-09-04T18:16:24.137Z,18.10
2022-09-04T18:18:52.307Z,18.00
2022-09-04T18:21:18.950Z,18.00
2022-09-04T18:24:04.535Z,18.00
2022-09-04T18:26:57.598Z,17.90
2022-09-04T18:33:46.011Z,17.90
2022-09-04T18:37:06.123Z,17.90
2022-09-04T18:37:19.445Z,17.90
2022-09-04T18:38:19.782Z,17.90
2022-09-04T18:42:42.943Z,17.90
2022-09-04T18:50:20.561Z,17.80
2022-09-04T18:50:28.033Z,17.80
2022-09-04T18:50:36.089Z,17.80
2022-09-04T18:52:10.948Z,17.70
2022-09-04T18:54:43.957Z,17.60
2022-09-04T18:57:24.508Z,17.60
2022-09-04T19:00:08.346Z,17.50
2022-09-04T19:03:02.038Z,17.40
2022-09-04T19:05:44.274Z,17.40
2022-09-04T19:08:18.413Z,17.40
2022-09-04T19:10:57.974Z,17.30
2022-09-04T19:13:30.708Z,17.30
2022-09-04T19:16:00.112Z,17.40
2022-09-04T19:18:45.473Z,17.30
2022-09-04T19:21:18.426Z,17.20
2022-09-04T19:23:50.192Z,17.10
2022-09-04T19:26:29.444Z,17.10
2022-09-04T19:28:58.964Z,17.10
2022-09-04T19:31:35.747Z,17.00
2022-09-04T19:34:02.567Z,17.00
2022-09-04T19:36:35.685Z,17.00
2022-09-04T19:45:56.906Z,17.00
2022-09-04T19:45:59.056Z,16.90
2022-09-04T19:46:26.372Z,16.90
2022-09-04T19:48:18.967Z,17.00
2022-09-04T19:53:22.246Z,17.00
2022-09-04T19:53:50.017Z,17.00
2022-09-04T19:56:26.136Z,17.00
2022-09-04T19:59:11.998Z,16.90
2022-09-04T20:01:42.157Z,16.80
2022-09-04T20:04:20.522Z,16.80
2022-09-04T20:06:48.262Z,16.70
2022-09-04T20:09:27.802Z,16.70
2022-09-04T20:12:05.080Z,16.60
2022-09-04T20:14:35.904Z,16.60
2022-09-04T20:17:09.205Z,16.50
2022-09-04T20:19:47.089Z,16.50
2022-09-04T20:22:25.769Z,16.50
2022-09-04T20:25:13.143Z,16.50
2022-09-04T20:27:52.920Z,16.60
2022-09-04T20:30:23.227Z,16.60
2022-09-04T20:33:05.122Z,16.60
2022-09-04T20:35:44.789Z,16.50
2022-09-04T20:38:22.959Z,16.60
2022-09-04T20:40:54.743Z,16.60
2022-09-04T20:43:31.764Z,16.60
2022-09-04T20:48:17.380Z,16.60
2022-09-04T20:52:55.881Z,16.70
2022-09-04T20:53:05.455Z,16.60
2022-09-04T20:54:55.854Z,16.50
2022-09-04T21:03:07.862Z,16.40
2022-09-04T21:03:09.429Z,16.40
2022-09-04T21:03:29.771Z,16.30
2022-09-04T21:06:06.928Z,16.20
2022-09-04T21:08:52.639Z,16.10
2022-09-04T21:11:40.803Z,16.20
2022-09-04T21:14:11.159Z,16.30
2022-09-04T21:17:34.138Z,16.30
2022-09-04T21:20:11.351Z,16.20
2022-09-04T21:22:55.679Z,16.10
2022-09-04T21:25:41.242Z,16.00
2022-09-04T21:28:12.063Z,15.90
2022-09-04T21:30:38.719Z,15.90
2022-09-04T21:33:28.379Z,16.00
2022-09-04T21:36:11.682Z,15.90
2022-09-04T21:39:04.711Z,15.90
2022-09-04T21:41:47.515Z,15.80
2022-09-04T21:44:20.230Z,15.80
2022-09-04T21:46:47.103Z,15.80
2022-09-04T21:49:26.842Z,15.70
2022-09-04T21:52:01.561Z,15.70
2022-09-04T21:57:56.394Z,15.60
2022-09-04T22:02:28.230Z,15.60
2022-09-04T22:02:37.799Z,15.50
2022-09-04T22:03:26.256Z,15.50
2022-09-04T22:06:03.905Z,15.50
2022-09-04T22:13:35.214Z,15.40
2022-09-04T22:13:39.584Z,15.40
2022-09-04T22:14:55.957Z,15.30
2022-09-04T22:17:32.307Z,15.30
2022-09-04T22:20:18.185Z,15.30
2022-09-04T22:23:03.285Z,15.20
2022-09-04T22:25:29.933Z,15.10
2022-09-04T22:28:15.468Z,15.20
2022-09-04T22:30:54.060Z,15.10
2022-09-04T22:33:23.852Z,15.10
2022-09-04T22:35:50.605Z,15.10
2022-09-04T22:38:36.423Z,15.10
2022-09-04T22:41:29.240Z,15.00
2022-09-04T22:44:18.400Z,15.00
2022-09-04T22:46:51.155Z,15.20
2022-09-04T22:49:17.854Z,15.20
2022-09-04T22:51:51.500Z,15.30
2022-09-04T22:54:31.531Z,15.30
2022-09-04T22:57:03.805Z,15.20
2022-09-04T22:59:36.824Z,15.10
2022-09-04T23:02:30.686Z,15.00
2022-09-04T23:05:10.704Z,14.90
2022-09-04T23:11:42.026Z,14.90
2022-09-04T23:13:54.629Z,15.00
2022-09-04T23:14:05.276Z,15.00
2022-09-04T23:16:32.230Z,15.00
2022-09-04T23:26:34.384Z,14.90
2022-09-04T23:26:35.090Z,14.90
2022-09-04T23:26:53.433Z,14.90
2022-09-04T23:28:27.214Z,14.80
2022-09-04T23:31:10.775Z,14.70
2022-09-04T23:33:56.413Z,14.60
2022-09-04T23:36:35.883Z,14.60
2022-09-04T23:39:02.645Z,14.60
2022-09-04T23:41:32.942Z,14.70
2022-09-04T23:44:25.588Z,14.70
2022-09-04T23:47:01.160Z,14.60
2022-09-04T23:49:30.984Z,14.50
2022-09-04T23:52:14.727Z,14.40
2022-09-04T23:55:10.783Z,14.40
2022-09-04T23:57:37.402Z,14.30
